createdAt,value
2018-10-09T00:00:53.511Z,7.87
2018-10-09T00:01:53.320Z,7.86
2018-10-09T00:02:53.305Z,7.86
2018-10-09T00:03:53.292Z,7.95
2018-10-09T00:04:53.281Z,7.93
2018-10-09T00:05:53.284Z,7.97
2018-10-09T00:06:53.258Z,7.93
2018-10-09T00:07:53.250Z,7.93
2018-10-09T00:08:53.238Z,7.93
2018-10-09T00:09:53.245Z,7.92
2018-10-09T00:10:53.217Z,7.93
2018-10-09T00:11:53.205Z,7.97
2018-10-09T00:12:53.195Z,7.97
2018-10-09T00:13:53.183Z,7.97
2018-10-09T00:14:53.212Z,8.02
2018-10-09T00:15:53.159Z,7.95
2018-10-09T00:16:53.150Z,7.95
2018-10-09T00:17:53.139Z,8.00
2018-10-09T00:18:53.125Z,7.95
2018-10-09T00:19:53.117Z,7.93
2018-10-09T00:20:53.120Z,7.95
2018-10-09T00:21:53.095Z,7.97
2018-10-09T00:22:53.095Z,8.01
2018-10-09T00:23:53.074Z,8.02
2018-10-09T00:24:53.060Z,7.90
2018-10-09T00:25:53.095Z,7.90
2018-10-09T00:26:53.049Z,7.97
2018-10-09T00:27:53.026Z,7.95
2018-10-09T00:28:53.022Z,7.92
2018-10-09T00:29:53.004Z,7.92
2018-10-09T00:30:53.033Z,7.90
2018-10-09T00:31:52.982Z,8.05
2018-10-09T00:32:52.974Z,8.02
2018-10-09T00:33:52.960Z,8.02
2018-10-09T00:34:52.949Z,8.02
2018-10-09T00:35:52.940Z,8.08
2018-10-09T00:36:52.941Z,8.01
2018-10-09T00:37:52.919Z,7.95
2018-10-09T00:38:52.926Z,8.07
2018-10-09T00:39:52.913Z,8.07
2018-10-09T00:40:52.886Z,8.02
2018-10-09T00:41:52.873Z,8.00
2018-10-09T00:42:52.861Z,8.04
2018-10-09T00:43:52.864Z,7.98
2018-10-09T00:44:52.840Z,7.95
2018-10-09T00:45:52.830Z,8.07
2018-10-09T00:46:52.835Z,8.00
2018-10-09T00:47:52.810Z,8.07
2018-10-09T00:48:52.795Z,8.05
2018-10-09T00:49:52.786Z,8.00
2018-10-09T00:50:52.775Z,8.01
2018-10-09T00:51:52.778Z,8.02
2018-10-09T00:52:52.760Z,8.07
2018-10-09T00:53:52.740Z,8.04
2018-10-09T00:54:52.732Z,8.00
2018-10-09T00:55:52.734Z,8.04
2018-10-09T00:56:52.710Z,8.07
2018-10-09T00:57:52.694Z,8.10
2018-10-09T00:58:52.686Z,8.02
2018-10-09T00:59:52.675Z,8.11
2018-10-09T01:00:52.680Z,8.11
2018-10-09T01:01:52.656Z,8.11
2018-10-09T01:02:52.645Z,8.05
2018-10-09T01:03:52.633Z,8.02
2018-10-09T01:04:52.619Z,8.08
2018-10-09T01:05:52.642Z,8.00
2018-10-09T01:06:52.600Z,8.12
2018-10-09T01:07:52.590Z,8.07
2018-10-09T01:08:52.575Z,8.05
2018-10-09T01:09:52.566Z,8.02
2018-10-09T01:10:52.553Z,8.00
2018-10-09T01:11:52.581Z,7.95
2018-10-09T01:12:52.531Z,7.92
2018-10-09T01:13:52.522Z,7.95
2018-10-09T01:14:52.510Z,7.92
2018-10-09T01:15:52.498Z,7.97
2018-10-09T01:16:52.487Z,7.97
2018-10-09T01:17:52.491Z,7.93
2018-10-09T01:18:52.467Z,7.87
2018-10-09T01:19:52.461Z,7.98
2018-10-09T01:20:52.448Z,7.97
2018-10-09T01:21:52.433Z,7.97
2018-10-09T01:22:52.443Z,7.89
2018-10-09T01:23:52.410Z,7.86
2018-10-09T01:24:52.401Z,7.89
2018-10-09T01:25:52.391Z,7.89
2018-10-09T01:26:52.380Z,7.87
2018-10-09T01:27:52.366Z,7.86
2018-10-09T01:28:52.375Z,7.89
2018-10-09T01:29:52.346Z,7.83
2018-10-09T01:30:52.337Z,7.82
2018-10-09T01:31:52.325Z,7.89
2018-10-09T01:32:52.328Z,7.72
2018-10-09T01:33:52.306Z,7.77
2018-10-09T01:34:52.301Z,7.69
2018-10-09T01:35:52.281Z,7.77
2018-10-09T01:36:52.281Z,7.75
2018-10-09T01:37:52.273Z,7.77
2018-10-09T01:38:52.262Z,7.68
2018-10-09T01:39:52.238Z,7.75
2018-10-09T01:40:52.223Z,7.68
2018-10-09T01:41:52.213Z,7.71
2018-10-09T01:42:52.217Z,7.63
2018-10-09T01:43:52.204Z,7.52
2018-10-09T01:44:52.181Z,7.55
2018-10-09T01:45:52.171Z,7.63
2018-10-09T01:46:52.158Z,7.63
2018-10-09T01:47:52.149Z,7.50
2018-10-09T01:48:52.153Z,7.67
2018-10-09T01:49:52.125Z,7.57
2018-10-09T01:50:52.120Z,7.49
2018-10-09T01:51:52.102Z,7.68
2018-10-09T01:52:52.094Z,7.50
2018-10-09T01:53:52.117Z,7.53
2018-10-09T01:54:52.070Z,7.49
2018-10-09T01:55:52.062Z,7.52
2018-10-09T01:56:52.048Z,7.48
2018-10-09T01:57:52.041Z,7.53
2018-10-09T01:58:52.026Z,7.40
2018-10-09T01:59:52.031Z,7.39
2018-10-09T02:00:52.007Z,7.42
2018-10-09T02:01:51.996Z,7.43
2018-10-09T02:02:51.984Z,7.46
2018-10-09T02:03:51.971Z,7.39
2018-10-09T02:04:51.974Z,7.42
2018-10-09T02:05:51.989Z,7.37
2018-10-09T02:06:51.940Z,7.49
2018-10-09T02:07:51.930Z,7.37
2018-10-09T02:08:51.919Z,7.34
2018-10-09T02:09:51.904Z,7.31
2018-10-09T02:10:51.896Z,7.35
2018-10-09T02:11:51.903Z,7.30
2018-10-09T02:12:51.874Z,7.30
2018-10-09T02:13:51.861Z,7.27
2018-10-09T02:14:51.853Z,7.28
2018-10-09T02:15:51.842Z,7.31
2018-10-09T02:16:51.871Z,7.23
2018-10-09T02:17:51.819Z,7.24
2018-10-09T02:18:51.811Z,7.25
2018-10-09T02:19:51.795Z,7.28
2018-10-09T02:20:51.785Z,7.20
2018-10-09T02:21:51.773Z,7.15
2018-10-09T02:22:51.775Z,7.20
2018-10-09T02:23:51.795Z,7.13
2018-10-09T02:24:51.740Z,7.25
2018-10-09T02:25:51.732Z,7.21
2018-10-09T02:26:51.721Z,7.15
2018-10-09T02:27:51.710Z,7.10
2018-10-09T02:28:51.700Z,7.13
2018-10-09T02:29:51.702Z,7.10
2018-10-09T02:30:51.675Z,7.06
2018-10-09T02:31:51.663Z,7.09
2018-10-09T02:32:51.654Z,7.10
2018-10-09T02:33:51.647Z,6.99
2018-10-09T02:34:51.645Z,7.16
2018-10-09T02:35:51.622Z,7.16
2018-10-09T02:36:51.610Z,7.12
2018-10-09T02:37:51.613Z,7.12
2018-10-09T02:38:51.595Z,7.13
2018-10-09T02:39:51.591Z,7.03
2018-10-09T02:40:51.571Z,7.09
2018-10-09T02:41:51.555Z,7.09
2018-10-09T02:42:51.587Z,7.03
2018-10-09T02:43:51.535Z,7.07
2018-10-09T02:44:51.523Z,6.99
2018-10-09T02:45:51.513Z,7.03
2018-10-09T02:46:51.501Z,6.98
2018-10-09T02:47:51.489Z,6.91
2018-10-09T02:48:51.489Z,7.05
2018-10-09T02:49:51.487Z,6.99
2018-10-09T02:50:51.461Z,7.05
2018-10-09T02:51:51.446Z,6.94
2018-10-09T02:52:51.433Z,6.89
2018-10-09T02:53:51.421Z,6.88
2018-10-09T02:54:51.425Z,6.89
2018-10-09T02:55:51.414Z,7.03
2018-10-09T02:56:51.391Z,7.02
2018-10-09T02:57:51.381Z,6.99
2018-10-09T02:58:51.374Z,6.91
2018-10-09T02:59:51.356Z,6.87
2018-10-09T03:00:51.360Z,6.95
2018-10-09T03:01:51.334Z,6.94
2018-10-09T03:02:51.326Z,6.88
2018-10-09T03:03:51.311Z,6.95
2018-10-09T03:04:51.305Z,6.95
2018-10-09T03:05:51.307Z,6.95
2018-10-09T03:06:51.282Z,6.88
2018-10-09T03:07:51.273Z,6.91
2018-10-09T03:08:51.259Z,6.88
2018-10-09T03:09:51.248Z,6.77
2018-10-09T03:10:51.281Z,6.74
2018-10-09T03:11:51.229Z,6.76
2018-10-09T03:12:51.219Z,6.79
2018-10-09T03:13:51.208Z,6.81
2018-10-09T03:14:51.191Z,6.79
2018-10-09T03:15:51.181Z,6.77
2018-10-09T03:16:51.211Z,6.77
2018-10-09T03:17:51.158Z,6.77
2018-10-09T03:18:51.150Z,6.73
2018-10-09T03:19:51.140Z,6.73
2018-10-09T03:20:51.128Z,6.79
2018-10-09T03:21:51.114Z,6.80
2018-10-09T03:22:51.117Z,6.77
2018-10-09T03:23:51.093Z,6.77
2018-10-09T03:24:51.085Z,6.81
2018-10-09T03:25:51.092Z,6.77
2018-10-09T03:26:51.061Z,6.74
2018-10-09T03:27:51.069Z,6.67
2018-10-09T03:28:51.041Z,6.74
2018-10-09T03:29:51.029Z,6.64
2018-10-09T03:30:51.024Z,6.67
2018-10-09T03:31:51.006Z,6.69
2018-10-09T03:32:50.997Z,6.69
2018-10-09T03:33:50.998Z,6.69
2018-10-09T03:34:50.976Z,6.73
2018-10-09T03:35:50.960Z,6.69
2018-10-09T03:36:50.952Z,6.66
2018-10-09T03:37:50.938Z,6.69
2018-10-09T03:38:50.943Z,6.69
2018-10-09T03:39:50.919Z,6.67
2018-10-09T03:40:50.909Z,6.69
2018-10-09T03:41:50.897Z,6.64
2018-10-09T03:42:50.884Z,6.66
2018-10-09T03:43:50.887Z,6.62
2018-10-09T03:44:50.876Z,6.62
2018-10-09T03:45:50.851Z,6.62
2018-10-09T03:46:50.840Z,6.64
2018-10-09T03:47:50.832Z,6.66
2018-10-09T03:48:50.820Z,6.69
2018-10-09T03:49:50.824Z,6.61
2018-10-09T03:50:50.801Z,6.69
2018-10-09T03:51:50.793Z,6.59
2018-10-09T03:52:50.779Z,6.62
2018-10-09T03:53:50.765Z,6.67
2018-10-09T03:54:50.769Z,6.62
2018-10-09T03:55:50.793Z,6.62
2018-10-09T03:56:50.732Z,6.67
2018-10-09T03:57:50.720Z,6.66
2018-10-09T03:58:50.715Z,6.58
2018-10-09T03:59:50.698Z,6.61
2018-10-09T04:00:50.689Z,6.59
2018-10-09T04:01:50.685Z,6.64
2018-10-09T04:02:50.667Z,6.64
2018-10-09T04:03:50.657Z,6.62
2018-10-09T04:04:50.647Z,6.59
2018-10-09T04:05:50.649Z,6.62
2018-10-09T04:06:50.651Z,6.62
2018-10-09T04:07:50.609Z,6.61
2018-10-09T04:08:50.600Z,6.59
2018-10-09T04:09:50.592Z,6.61
2018-10-09T04:10:50.634Z,6.64
2018-10-09T04:11:50.590Z,6.66
2018-10-09T04:12:50.666Z,6.58
2018-10-09T04:13:50.547Z,6.64
2018-10-09T04:14:50.536Z,6.62
2018-10-09T04:15:50.522Z,6.52
2018-10-09T04:16:50.534Z,6.62
2018-10-09T04:17:50.514Z,6.62
2018-10-09T04:18:50.492Z,6.56
2018-10-09T04:19:50.481Z,6.59
2018-10-09T04:20:50.472Z,6.59
2018-10-09T04:21:50.457Z,6.48
2018-10-09T04:22:50.489Z,6.64
2018-10-09T04:23:50.436Z,6.55
2018-10-09T04:24:50.427Z,6.59
2018-10-09T04:25:50.414Z,6.49
2018-10-09T04:26:50.406Z,6.54
2018-10-09T04:27:50.400Z,6.52
2018-10-09T04:28:50.408Z,6.56
2018-10-09T04:29:50.381Z,6.54
2018-10-09T04:30:50.359Z,6.46
2018-10-09T04:31:50.354Z,6.55
2018-10-09T04:32:50.340Z,6.59
2018-10-09T04:33:50.328Z,6.59
2018-10-09T04:34:50.334Z,6.51
2018-10-09T04:35:50.306Z,6.48
2018-10-09T04:36:50.294Z,6.55
2018-10-09T04:37:50.283Z,6.55
2018-10-09T04:38:50.275Z,6.61
2018-10-09T04:39:50.264Z,6.56
2018-10-09T04:40:50.266Z,6.55
2018-10-09T04:41:50.242Z,6.62
2018-10-09T04:42:50.231Z,6.59
2018-10-09T04:43:50.218Z,6.62
2018-10-09T04:44:50.219Z,6.64
2018-10-09T04:45:50.195Z,6.61
2018-10-09T04:46:50.187Z,6.56
2018-10-09T04:47:50.176Z,6.61
2018-10-09T04:48:50.163Z,6.61
2018-10-09T04:49:50.164Z,6.61
2018-10-09T04:50:50.145Z,6.54
2018-10-09T04:51:50.130Z,6.56
2018-10-09T04:52:50.123Z,6.58
2018-10-09T04:53:50.120Z,6.59
2018-10-09T04:54:50.107Z,6.62
2018-10-09T04:55:50.112Z,6.58
2018-10-09T04:56:50.077Z,6.55
2018-10-09T04:57:50.063Z,6.52
2018-10-09T04:58:50.068Z,6.62
2018-10-09T04:59:50.043Z,6.56
2018-10-09T05:00:50.214Z,6.59
2018-10-09T05:01:50.023Z,6.59
2018-10-09T05:02:50.012Z,6.59
2018-10-09T05:03:50.002Z,6.52
2018-10-09T05:04:49.990Z,6.55
2018-10-09T05:05:49.978Z,6.55
2018-10-09T05:06:49.976Z,6.54
2018-10-09T05:07:49.960Z,6.61
2018-10-09T05:08:49.946Z,6.48
2018-10-09T05:09:49.933Z,6.62
2018-10-09T05:10:49.926Z,6.64
2018-10-09T05:11:49.923Z,6.56
2018-10-09T05:12:49.904Z,6.46
2018-10-09T05:13:49.892Z,6.54
2018-10-09T05:14:49.881Z,6.59
2018-10-09T05:15:49.869Z,6.49
2018-10-09T05:16:49.869Z,6.52
2018-10-09T05:17:49.909Z,6.41
2018-10-09T05:18:49.862Z,6.49
2018-10-09T05:19:49.826Z,6.51
2018-10-09T05:20:49.828Z,6.41
2018-10-09T05:21:49.804Z,6.44
2018-10-09T05:22:49.801Z,6.41
2018-10-09T05:23:49.780Z,6.43
2018-10-09T05:24:49.771Z,6.44
2018-10-09T05:25:49.763Z,6.41
2018-10-09T05:26:49.751Z,6.43
2018-10-09T05:27:49.751Z,6.51
2018-10-09T05:28:49.726Z,6.36
2018-10-09T05:29:49.718Z,6.43
2018-10-09T05:30:49.703Z,6.43
2018-10-09T05:31:49.693Z,6.43
2018-10-09T05:32:49.698Z,6.33
2018-10-09T05:33:49.669Z,6.40
2018-10-09T05:34:49.660Z,6.43
2018-10-09T05:35:49.648Z,6.38
2018-10-09T05:36:49.640Z,6.38
2018-10-09T05:37:49.737Z,6.33
2018-10-09T05:38:49.631Z,6.34
2018-10-09T05:39:49.622Z,6.33
2018-10-09T05:40:49.593Z,6.31
2018-10-09T05:41:49.589Z,6.38
2018-10-09T05:42:49.571Z,6.36
2018-10-09T05:43:49.564Z,6.33
2018-10-09T05:44:49.564Z,6.37
2018-10-09T05:45:49.540Z,6.36
2018-10-09T05:46:49.530Z,6.31
2018-10-09T05:47:49.517Z,6.36
2018-10-09T05:48:49.520Z,6.37
2018-10-09T05:49:49.510Z,6.36
2018-10-09T05:50:49.486Z,6.36
2018-10-09T05:51:49.475Z,6.36
2018-10-09T05:52:49.462Z,6.34
2018-10-09T05:53:49.455Z,6.36
2018-10-09T05:54:49.455Z,6.28
2018-10-09T05:55:49.450Z,6.27
2018-10-09T05:56:49.420Z,6.34
2018-10-09T05:57:49.442Z,6.33
2018-10-09T05:58:49.397Z,6.37
2018-10-09T05:59:49.392Z,6.34
2018-10-09T06:00:49.377Z,6.33
2018-10-09T06:01:49.395Z,6.36
2018-10-09T06:02:49.354Z,6.40
2018-10-09T06:03:49.345Z,6.37
2018-10-09T06:04:49.333Z,6.44
2018-10-09T06:05:49.336Z,6.41
2018-10-09T06:06:49.311Z,6.41
2018-10-09T06:07:49.310Z,6.43
2018-10-09T06:08:49.288Z,6.46
2018-10-09T06:09:49.279Z,6.40
2018-10-09T06:10:49.266Z,6.40
2018-10-09T06:11:49.255Z,6.46
2018-10-09T06:12:49.260Z,6.52
2018-10-09T06:13:49.235Z,6.59
2018-10-09T06:14:49.222Z,6.51
2018-10-09T06:15:49.253Z,6.54
2018-10-09T06:16:49.201Z,6.64
2018-10-09T06:17:49.205Z,6.61
2018-10-09T06:18:49.181Z,6.64
2018-10-09T06:19:49.169Z,6.62
2018-10-09T06:20:49.161Z,6.62
2018-10-09T06:21:49.145Z,6.62
2018-10-09T06:22:49.150Z,6.73
2018-10-09T06:23:49.143Z,6.70
2018-10-09T06:24:49.116Z,6.71
2018-10-09T06:25:49.101Z,6.79
2018-10-09T06:26:49.090Z,6.76
2018-10-09T06:27:49.094Z,6.76
2018-10-09T06:28:49.071Z,6.73
2018-10-09T06:29:49.080Z,6.77
2018-10-09T06:30:49.046Z,6.94
2018-10-09T06:31:49.038Z,6.87
2018-10-09T06:32:49.024Z,6.88
2018-10-09T06:33:49.018Z,6.89
2018-10-09T06:34:49.023Z,7.07
2018-10-09T06:35:48.991Z,7.05
2018-10-09T06:36:48.980Z,7.02
2018-10-09T06:37:48.972Z,7.06
2018-10-09T06:38:48.961Z,7.09
2018-10-09T06:39:48.951Z,7.16
2018-10-09T06:40:48.954Z,7.07
2018-10-09T06:41:48.929Z,7.13
2018-10-09T06:42:48.946Z,7.12
2018-10-09T06:43:48.907Z,7.21
2018-10-09T06:44:48.910Z,7.23
2018-10-09T06:45:48.900Z,7.28
2018-10-09T06:46:48.874Z,7.30
2018-10-09T06:47:49.071Z,7.35
2018-10-09T06:48:48.850Z,7.37
2018-10-09T06:49:48.855Z,7.37
2018-10-09T06:50:48.841Z,7.52
2018-10-09T06:51:48.818Z,7.50
2018-10-09T06:52:48.823Z,7.52
2018-10-09T06:53:49.049Z,7.64
2018-10-09T06:54:48.806Z,7.63
2018-10-09T06:55:48.777Z,7.57
2018-10-09T06:56:48.776Z,7.68
2018-10-09T06:57:48.765Z,7.74
2018-10-09T06:58:48.744Z,7.83
2018-10-09T06:59:48.733Z,7.82
2018-10-09T07:00:48.723Z,7.83
2018-10-09T07:01:48.761Z,7.87
2018-10-09T07:02:48.699Z,7.93
2018-10-09T07:03:48.690Z,8.00
2018-10-09T07:04:48.680Z,8.04
2018-10-09T07:05:48.668Z,8.02
2018-10-09T07:06:48.670Z,8.10
2018-10-09T07:07:48.645Z,8.10
2018-10-09T07:08:48.638Z,8.12
2018-10-09T07:09:48.626Z,8.25
2018-10-09T07:10:48.614Z,8.41
2018-10-09T07:11:48.640Z,8.37
2018-10-09T07:12:48.593Z,8.38
2018-10-09T07:13:48.580Z,8.45
2018-10-09T07:14:48.573Z,8.59
2018-10-09T07:15:48.557Z,8.53
2018-10-09T07:16:48.604Z,8.73
2018-10-09T07:17:48.553Z,8.68
2018-10-09T07:18:48.525Z,8.70
2018-10-09T07:19:48.514Z,8.89
2018-10-09T07:20:48.505Z,8.83
2018-10-09T07:21:48.493Z,8.91
2018-10-09T07:22:48.483Z,9.02
2018-10-09T07:23:48.487Z,9.05
2018-10-09T07:24:48.458Z,9.10
2018-10-09T07:25:48.447Z,9.14
2018-10-09T07:26:48.439Z,9.18
2018-10-09T07:27:48.435Z,9.28
2018-10-09T07:28:48.414Z,9.29
2018-10-09T07:29:48.416Z,9.26
2018-10-09T07:30:48.390Z,9.36
2018-10-09T07:31:48.381Z,9.36
2018-10-09T07:32:48.368Z,9.43
2018-10-09T07:33:48.359Z,9.54
2018-10-09T07:34:48.362Z,9.64
2018-10-09T07:35:48.338Z,9.72
2018-10-09T07:36:48.326Z,9.75
2018-10-09T07:37:48.316Z,9.76
2018-10-09T07:38:48.342Z,9.86
2018-10-09T07:39:48.292Z,9.91
2018-10-09T07:40:48.280Z,10.01
2018-10-09T07:41:48.271Z,9.89
2018-10-09T07:42:48.258Z,10.04
2018-10-09T07:43:48.252Z,10.12
2018-10-09T07:44:48.254Z,10.15
2018-10-09T07:45:48.226Z,10.29
2018-10-09T07:46:48.215Z,10.45
2018-10-09T07:47:48.207Z,10.48
2018-10-09T07:48:48.191Z,10.71
2018-10-09T07:49:48.203Z,10.86
2018-10-09T07:50:48.172Z,10.99
2018-10-09T07:51:48.158Z,11.22
2018-10-09T07:52:48.159Z,11.28
2018-10-09T07:53:48.140Z,11.33
2018-10-09T07:54:48.130Z,11.33
2018-10-09T07:55:48.128Z,11.42
2018-10-09T07:56:48.105Z,11.54
2018-10-09T07:57:48.107Z,11.62
2018-10-09T07:58:48.147Z,11.78
2018-10-09T07:59:48.072Z,11.90
2018-10-09T08:00:48.077Z,11.94
2018-10-09T08:01:48.065Z,12.09
2018-10-09T08:02:48.040Z,12.09
2018-10-09T08:03:48.030Z,12.10
2018-10-09T08:04:48.090Z,12.19
2018-10-09T08:05:48.007Z,12.31
2018-10-09T08:06:48.021Z,12.34
2018-10-09T08:07:47.990Z,12.24
2018-10-09T08:08:47.978Z,12.29
2018-10-09T08:09:47.964Z,12.39
2018-10-09T08:10:47.977Z,12.46
2018-10-09T08:11:47.950Z,12.49
2018-10-09T08:12:47.951Z,12.54
2018-10-09T08:13:47.928Z,12.54
2018-10-09T08:14:47.912Z,12.53
2018-10-09T08:15:47.904Z,12.56
2018-10-09T08:16:47.898Z,12.57
2018-10-09T08:17:47.879Z,12.65
2018-10-09T08:18:47.886Z,12.65
2018-10-09T08:19:47.853Z,12.74
2018-10-09T08:20:47.843Z,12.79
2018-10-09T08:21:47.830Z,12.90
2018-10-09T08:22:47.865Z,12.90
2018-10-09T08:23:47.811Z,12.86
2018-10-09T08:24:47.816Z,13.00
2018-10-09T08:25:47.790Z,13.00
2018-10-09T08:26:47.780Z,12.92
2018-10-09T08:27:47.764Z,12.83
2018-10-09T08:28:47.765Z,12.83
2018-10-09T08:29:47.743Z,12.86
2018-10-09T08:30:47.735Z,12.82
2018-10-09T08:31:47.721Z,12.79
2018-10-09T08:32:47.726Z,12.82
2018-10-09T08:33:47.775Z,12.96
2018-10-09T08:34:47.690Z,13.11
2018-10-09T08:35:47.695Z,13.33
2018-10-09T08:36:47.670Z,13.51
2018-10-09T08:37:47.656Z,13.79
2018-10-09T08:38:47.645Z,13.99
2018-10-09T08:39:47.639Z,14.18
2018-10-09T08:40:47.641Z,14.43
2018-10-09T08:41:47.615Z,14.75
2018-10-09T08:42:47.617Z,14.77
2018-10-09T08:43:47.592Z,15.07
2018-10-09T08:44:47.633Z,15.14
2018-10-09T08:45:47.588Z,15.21
2018-10-09T08:46:47.559Z,15.32
2018-10-09T08:47:47.547Z,15.39
2018-10-09T08:48:47.537Z,15.64
2018-10-09T08:49:47.526Z,15.46
2018-10-09T08:50:47.551Z,15.28
2018-10-09T08:51:47.524Z,15.36
2018-10-09T08:52:47.492Z,15.21
2018-10-09T08:53:47.483Z,15.20
2018-10-09T08:54:47.472Z,15.23
2018-10-09T08:55:47.462Z,15.35
2018-10-09T08:56:47.466Z,15.27
2018-10-09T08:57:47.440Z,15.03
2018-10-09T08:58:47.436Z,14.96
2018-10-09T08:59:47.419Z,14.91
2018-10-09T09:00:47.407Z,15.07
2018-10-09T09:01:47.408Z,15.23
2018-10-09T09:02:47.386Z,15.31
2018-10-09T09:03:47.374Z,15.54
2018-10-09T09:04:47.360Z,15.64
2018-10-09T09:05:47.349Z,15.59
2018-10-09T09:06:47.360Z,15.68
2018-10-09T09:07:47.327Z,15.54
2018-10-09T09:08:47.332Z,15.64
2018-10-09T09:09:47.414Z,15.67
2018-10-09T09:10:47.297Z,15.69
2018-10-09T09:11:47.299Z,15.74
2018-10-09T09:12:47.301Z,15.78
2018-10-09T09:13:47.293Z,15.90
2018-10-09T09:14:47.253Z,15.97
2018-10-09T09:15:47.239Z,16.11
2018-10-09T09:16:47.229Z,16.23
2018-10-09T09:17:47.220Z,16.25
2018-10-09T09:18:47.221Z,16.23
2018-10-09T09:19:47.197Z,16.11
2018-10-09T09:20:47.201Z,16.24
2018-10-09T09:21:47.174Z,16.24
2018-10-09T09:22:47.179Z,16.24
2018-10-09T09:23:47.152Z,16.43
2018-10-09T09:24:47.145Z,16.56
2018-10-09T09:25:47.130Z,16.78
2018-10-09T09:26:47.361Z,16.88
2018-10-09T09:27:47.190Z,17.14
2018-10-09T09:28:47.098Z,17.14
2018-10-09T09:29:47.087Z,17.21
2018-10-09T09:30:47.080Z,17.52
2018-10-09T09:31:47.064Z,17.66
2018-10-09T09:32:47.067Z,17.95
2018-10-09T09:33:47.046Z,18.07
2018-10-09T09:34:47.035Z,18.25
2018-10-09T09:35:47.024Z,18.29
2018-10-09T09:36:47.012Z,18.35
2018-10-09T09:37:47.016Z,18.26
2018-10-09T09:38:47.046Z,18.41
2018-10-09T09:39:46.997Z,18.44
2018-10-09T09:40:46.969Z,18.60
2018-10-09T09:41:46.960Z,18.76
2018-10-09T09:42:46.947Z,18.95
2018-10-09T09:43:46.936Z,19.04
2018-10-09T09:44:46.925Z,19.13
2018-10-09T09:45:46.993Z,19.29
2018-10-09T09:46:46.902Z,19.07
2018-10-09T09:47:46.893Z,18.98
2018-10-09T09:48:46.892Z,18.85
2018-10-09T09:49:46.871Z,18.65
2018-10-09T09:50:46.858Z,18.54
2018-10-09T09:51:46.848Z,18.69
2018-10-09T09:52:46.835Z,18.69
2018-10-09T09:53:46.845Z,18.73
2018-10-09T09:54:46.836Z,18.92
2018-10-09T09:55:46.808Z,19.04
2018-10-09T09:56:46.796Z,18.98
2018-10-09T09:57:46.871Z,18.91
2018-10-09T09:58:47.045Z,18.92
2018-10-09T09:59:46.764Z,19.04
2018-10-09T10:00:46.766Z,19.00
2018-10-09T10:01:46.740Z,19.02
2018-10-09T10:02:46.732Z,19.13
2018-10-09T10:03:46.753Z,19.28
2018-10-09T10:04:46.708Z,19.31
2018-10-09T10:05:46.713Z,19.46
2018-10-09T10:06:46.687Z,19.54
2018-10-09T10:07:46.679Z,19.62
2018-10-09T10:08:46.664Z,19.87
2018-10-09T10:09:46.671Z,19.81
2018-10-09T10:10:46.659Z,19.74
2018-10-09T10:11:46.635Z,19.81
2018-10-09T10:12:46.624Z,19.83
2018-10-09T10:13:46.611Z,19.81
2018-10-09T10:14:46.603Z,19.74
2018-10-09T10:15:46.650Z,19.61
2018-10-09T10:16:46.584Z,19.46
2018-10-09T10:17:46.571Z,19.29
2018-10-09T10:18:46.559Z,18.98
2018-10-09T10:19:46.547Z,18.72
2018-10-09T10:20:46.557Z,18.18
2018-10-09T10:21:46.528Z,17.93
2018-10-09T10:22:46.513Z,17.64
2018-10-09T10:23:46.506Z,17.66
2018-10-09T10:24:46.496Z,17.79
2018-10-09T10:25:46.484Z,17.96
2018-10-09T10:26:46.486Z,18.05
2018-10-09T10:27:46.463Z,18.27
2018-10-09T10:28:46.451Z,18.42
2018-10-09T10:29:46.455Z,18.70
2018-10-09T10:30:46.428Z,18.80
2018-10-09T10:31:46.418Z,18.99
2018-10-09T10:32:46.427Z,19.02
2018-10-09T10:33:46.398Z,19.19
2018-10-09T10:34:46.384Z,19.16
2018-10-09T10:35:46.451Z,19.33
2018-10-09T10:36:46.411Z,19.43
2018-10-09T10:37:46.350Z,19.50
2018-10-09T10:38:46.356Z,19.36
2018-10-09T10:39:46.330Z,19.11
2018-10-09T10:40:46.322Z,19.04
2018-10-09T10:41:46.308Z,18.80
2018-10-09T10:42:46.296Z,18.90
2018-10-09T10:43:46.304Z,18.99
2018-10-09T10:44:46.274Z,19.11
2018-10-09T10:45:46.267Z,19.29
2018-10-09T10:46:46.256Z,19.46
2018-10-09T10:47:46.243Z,19.51
2018-10-09T10:48:46.263Z,19.62
2018-10-09T10:49:46.222Z,19.78
2018-10-09T10:50:46.209Z,19.76
2018-10-09T10:51:46.203Z,19.83
2018-10-09T10:52:46.191Z,19.73
2018-10-09T10:53:46.192Z,19.69
2018-10-09T10:54:46.179Z,19.74
2018-10-09T10:55:46.160Z,19.48
2018-10-09T10:56:46.149Z,19.39
2018-10-09T10:57:46.151Z,19.55
2018-10-09T10:58:46.127Z,19.59
2018-10-09T10:59:46.118Z,19.36
2018-10-09T11:00:46.106Z,19.36
2018-10-09T11:01:46.106Z,19.43
2018-10-09T11:02:46.132Z,19.54
2018-10-09T11:03:46.108Z,19.66
2018-10-09T11:04:46.060Z,19.62
2018-10-09T11:05:46.053Z,19.61
2018-10-09T11:06:46.040Z,19.73
2018-10-09T11:07:46.079Z,19.80
2018-10-09T11:08:46.018Z,19.88
2018-10-09T11:09:46.021Z,19.95
2018-10-09T11:10:46.011Z,20.08
2018-10-09T11:11:45.988Z,20.10
2018-10-09T11:12:45.975Z,20.14
2018-10-09T11:13:45.964Z,20.28
2018-10-09T11:14:46.039Z,20.33
2018-10-09T11:15:45.959Z,20.36
2018-10-09T11:16:45.948Z,20.51
2018-10-09T11:17:45.922Z,20.26
2018-10-09T11:18:45.914Z,20.13
2018-10-09T11:19:45.901Z,19.98
2018-10-09T11:20:45.895Z,20.08
2018-10-09T11:21:45.990Z,20.21
2018-10-09T11:22:45.871Z,20.28
2018-10-09T11:23:45.860Z,20.54
2018-10-09T11:24:45.849Z,20.61
2018-10-09T11:25:45.839Z,20.74
2018-10-09T11:26:45.843Z,20.79
2018-10-09T11:27:45.814Z,20.74
2018-10-09T11:28:45.804Z,20.79
2018-10-09T11:29:45.796Z,20.89
2018-10-09T11:30:45.783Z,20.94
2018-10-09T11:31:45.790Z,20.97
2018-10-09T11:32:45.769Z,20.98
2018-10-09T11:33:45.757Z,20.99
2018-10-09T11:34:45.740Z,21.06
2018-10-09T11:35:45.732Z,21.14
2018-10-09T11:36:45.731Z,21.22
2018-10-09T11:37:45.710Z,21.40
2018-10-09T11:38:45.697Z,21.34
2018-10-09T11:39:45.686Z,21.53
2018-10-09T11:40:45.678Z,21.56
2018-10-09T11:41:45.687Z,21.40
2018-10-09T11:42:45.731Z,20.94
2018-10-09T11:43:45.646Z,20.59
2018-10-09T11:44:45.633Z,20.43
2018-10-09T11:45:45.625Z,20.38
2018-10-09T11:46:45.611Z,20.43
2018-10-09T11:47:45.623Z,20.64
2018-10-09T11:48:45.592Z,20.61
2018-10-09T11:49:45.582Z,20.58
2018-10-09T11:50:45.571Z,20.70
2018-10-09T11:51:45.565Z,20.79
2018-10-09T11:52:45.548Z,20.91
2018-10-09T11:53:45.552Z,20.91
2018-10-09T11:54:45.528Z,20.94
2018-10-09T11:55:45.515Z,20.95
2018-10-09T11:56:45.507Z,20.85
2018-10-09T11:57:45.502Z,20.80
2018-10-09T11:58:45.570Z,20.85
2018-10-09T11:59:45.474Z,20.70
2018-10-09T12:00:45.464Z,20.54
2018-10-09T12:01:45.454Z,20.20
2018-10-09T12:02:45.475Z,19.99
2018-10-09T12:03:45.458Z,20.03
2018-10-09T12:04:45.418Z,20.17
2018-10-09T12:05:45.413Z,20.05
2018-10-09T12:06:45.398Z,19.91
2018-10-09T12:07:45.384Z,19.92
2018-10-09T12:08:45.377Z,19.92
2018-10-09T12:09:45.378Z,19.91
2018-10-09T12:10:45.351Z,20.03
2018-10-09T12:11:45.342Z,20.02
2018-10-09T12:12:45.331Z,20.14
2018-10-09T12:13:45.335Z,20.26
2018-10-09T12:14:45.307Z,20.33
2018-10-09T12:15:45.311Z,20.54
2018-10-09T12:16:45.285Z,20.55
2018-10-09T12:17:45.275Z,20.66
2018-10-09T12:18:45.278Z,20.72
2018-10-09T12:19:45.273Z,20.72
2018-10-09T12:20:45.241Z,20.76
2018-10-09T12:21:45.230Z,20.74
2018-10-09T12:22:45.216Z,20.70
2018-10-09T12:23:45.205Z,20.66
2018-10-09T12:24:45.194Z,20.70
2018-10-09T12:25:45.196Z,20.74
2018-10-09T12:26:45.171Z,20.70
2018-10-09T12:27:45.159Z,20.61
2018-10-09T12:28:45.154Z,20.59
2018-10-09T12:29:45.150Z,20.66
2018-10-09T12:30:45.168Z,20.64
2018-10-09T12:31:45.118Z,20.69
2018-10-09T12:32:45.127Z,20.69
2018-10-09T12:33:45.094Z,20.69
2018-10-09T12:34:45.082Z,20.72
2018-10-09T12:35:45.075Z,20.76
2018-10-09T12:36:45.074Z,20.74
2018-10-09T12:37:45.048Z,20.76
2018-10-09T12:38:45.038Z,20.80
2018-10-09T12:39:45.026Z,20.89
2018-10-09T12:40:45.028Z,20.82
2018-10-09T12:41:45.003Z,20.82
2018-10-09T12:42:44.992Z,20.89
2018-10-09T12:43:45.014Z,20.95
2018-10-09T12:44:44.969Z,20.95
2018-10-09T12:45:44.991Z,20.95
2018-10-09T12:46:44.946Z,20.97
2018-10-09T12:47:44.937Z,21.01
2018-10-09T12:48:44.927Z,21.04
2018-10-09T12:49:44.914Z,21.04
2018-10-09T12:50:44.905Z,21.09
2018-10-09T12:51:44.907Z,21.09
2018-10-09T12:52:44.923Z,21.07
2018-10-09T12:53:44.872Z,21.13
2018-10-09T12:54:44.862Z,20.97
2018-10-09T12:55:44.848Z,20.97
2018-10-09T12:56:44.851Z,20.94
2018-10-09T12:57:44.828Z,20.94
2018-10-09T12:58:44.896Z,20.92
2018-10-09T12:59:44.821Z,20.84
2018-10-09T13:00:44.795Z,20.77
2018-10-09T13:01:44.783Z,20.73
2018-10-09T13:02:44.773Z,20.80
2018-10-09T13:03:44.779Z,20.76
2018-10-09T13:04:44.749Z,20.74
2018-10-09T13:05:44.738Z,20.72
2018-10-09T13:06:44.728Z,20.66
2018-10-09T13:07:44.734Z,20.54